Time;durP1;ratioP1;P1;durP2;ratioP2;P2;SDS_P1;SDS_P2;PMS_P1;PMS_P2;Temp;Humidity;BMP_temperature;BMP_pressure;BME280_temperature;BME280_humidity;BME280_pressure;Samples;Min_cycle;Max_cycle;Signal;HPM_P1;HPM_P2
2022/10/04 00:01:45;;;;;;;7.13;4.70;;;15.50;98.00;;;;;;4955586;28;20542;-74
2022/10/04 00:04:30;;;;;;;4.83;4.13;;;15.50;98.00;;;;;;4938827;29;20524;-74
2022/10/04 00:07:11;;;;;;;6.60;4.60;;;15.50;98.00;;;;;;4938619;29;20448;-74
2022/10/04 00:09:50;;;;;;;6.77;3.90;;;15.50;98.00;;;;;;4954118;29;20415;-74
2022/10/04 00:12:27;;;;;;;9.57;4.27;;;15.50;98.10;;;;;;4938171;29;20475;-74
2022/10/04 00:14:58;;;;;;;4.83;3.40;;;15.40;98.10;;;;;;4955223;29;20466;-75
2022/10/04 00:17:30;;;;;;;5.20;3.70;;;15.50;98.10;;;;;;4953929;28;20445;-74
2022/10/04 00:20:03;;;;;;;5.67;3.90;;;15.40;98.10;;;;;;4954269;28;20424;-74
2022/10/04 00:22:30;;;;;;;6.00;3.83;;;15.40;98.10;;;;;;4922503;29;20471;-74
2022/10/04 00:25:06;;;;;;;5.77;3.70;;;15.40;98.10;;;;;;4954132;28;20431;-74
2022/10/04 00:27:37;;;;;;;4.17;2.90;;;15.40;98.10;;;;;;4954141;29;20410;-74
2022/10/04 00:30:03;;;;;;;5.00;3.70;;;15.40;98.10;;;;;;4954212;28;20444;-75
2022/10/04 00:32:40;;;;;;;7.10;3.77;;;15.40;98.10;;;;;;4953915;28;20501;-74
2022/10/04 00:35:24;;;;;;;4.03;3.50;;;15.40;98.20;;;;;;4955134;28;20413;-74
2022/10/04 00:38:05;;;;;;;5.77;3.77;;;15.40;98.10;;;;;;4953949;29;20411;-74
2022/10/04 00:40:39;;;;;;;7.37;3.93;;;15.40;98.10;;;;;;4953624;29;20421;-74
2022/10/04 00:43:19;;;;;;;6.20;3.90;;;15.40;98.20;;;;;;4953928;29;20948;-74
2022/10/04 00:45:55;;;;;;;5.67;3.60;;;15.40;98.20;;;;;;4938423;29;20972;-74
2022/10/04 00:48:33;;;;;;;4.03;3.27;;;15.40;98.20;;;;;;4953885;29;20434;-75
2022/10/04 00:51:18;;;;;;;5.73;4.23;;;15.40;98.20;;;;;;4938189;29;20463;-74
2022/10/04 00:53:59;;;;;;;5.20;3.17;;;15.40;98.20;;;;;;4953751;29;20455;-74
2022/10/04 00:56:44;;;;;;;11.40;4.37;;;15.40;98.20;;;;;;4938152;29;20852;-74
2022/10/04 00:59:32;;;;;;;7.20;3.33;;;15.30;98.20;;;;;;4941886;29;20476;-74
2022/10/04 01:02:09;;;;;;;7.03;3.73;;;15.30;98.20;;;;;;4958471;28;20507;-74
2022/10/04 01:04:46;;;;;;;6.37;3.67;;;15.30;98.20;;;;;;4957064;29;20419;-76
2022/10/04 01:07:16;;;;;;;4.47;3.43;;;15.30;98.20;;;;;;4956411;29;20514;-74
2022/10/04 01:10:11;;;;;;;5.10;3.77;;;15.30;98.20;;;;;;4940101;29;20440;-74
2022/10/04 01:12:55;;;;;;;6.20;3.87;;;15.30;98.20;;;;;;4939644;29;20795;-75
2022/10/04 01:15:49;;;;;;;5.20;3.97;;;15.30;98.20;;;;;;4933938;29;21021;-75
2022/10/04 01:18:31;;;;;;;5.97;3.60;;;15.30;98.20;;;;;;4956125;29;20419;-72
2022/10/04 01:21:08;;;;;;;6.50;4.00;;;15.30;98.20;;;;;;4924078;29;20431;-73
2022/10/04 01:23:42;;;;;;;3.50;3.20;;;15.30;98.20;;;;;;4954892;28;20482;-72
2022/10/04 01:26:29;;;;;;;4.13;3.73;;;15.30;98.20;;;;;;4956526;28;20450;-73
2022/10/04 01:29:09;;;;;;;5.30;3.27;;;15.30;98.20;;;;;;4925432;29;20464;-73
2022/10/04 01:31:44;;;;;;;6.37;3.87;;;15.30;98.20;;;;;;4957298;29;20447;-74
2022/10/04 01:34:17;;;;;;;4.87;3.57;;;15.30;98.20;;;;;;4956885;29;20412;-73
2022/10/04 01:36:47;;;;;;;6.83;3.90;;;15.20;98.10;;;;;;4957190;28;20444;-73
2022/10/04 01:39:18;;;;;;;6.00;3.60;;;15.30;98.10;;;;;;4940384;29;20415;-73
2022/10/04 01:42:09;;;;;;;5.30;3.80;;;15.20;98.10;;;;;;4956361;28;20454;-74
2022/10/04 01:44:44;;;;;;;4.10;3.53;;;15.20;98.10;;;;;;4937704;29;20541;-75
2022/10/04 01:47:18;;;;;;;4.83;3.47;;;15.20;98.10;;;;;;4942478;29;20510;-74
2022/10/04 01:49:48;;;;;;;4.97;3.33;;;15.20;98.10;;;;;;4938979;29;20438;-74
2022/10/04 01:52:17;;;;;;;8.30;4.30;;;15.20;98.10;;;;;;4938960;29;20486;-74
2022/10/04 01:54:51;;;;;;;5.23;3.63;;;15.20;98.10;;;;;;4954623;29;20416;-73
2022/10/04 01:57:30;;;;;;;4.00;3.50;;;15.20;98.10;;;;;;4956821;28;20521;-73
2022/10/04 02:00:08;;;;;;;4.90;3.20;;;15.20;98.10;;;;;;4957395;29;20449;-73
2022/10/04 02:02:42;;;;;;;7.77;3.37;;;15.20;98.10;;;;;;4955423;29;20407;-75
2022/10/04 02:05:14;;;;;;;5.90;3.57;;;15.20;98.10;;;;;;4920388;29;20457;-73
2022/10/04 02:07:41;;;;;;;7.80;4.00;;;15.20;98.10;;;;;;4938750;28;20870;-73
2022/10/04 02:10:17;;;;;;;5.70;3.40;;;15.20;98.10;;;;;;4954762;28;20450;-73
2022/10/04 02:13:16;;;;;;;6.23;3.67;;;15.20;98.10;;;;;;4940839;29;20458;-73
2022/10/04 02:15:46;;;;;;;5.57;4.00;;;15.20;98.10;;;;;;4956012;28;20426;-73
2022/10/04 02:18:23;;;;;;;5.97;3.90;;;15.20;98.10;;;;;;4954374;28;20416;-72
2022/10/04 02:20:50;;;;;;;3.67;3.30;;;15.20;98.50;;;;;;4954644;29;20431;-73
2022/10/04 02:23:20;;;;;;;5.57;3.30;;;15.20;98.10;;;;;;4954403;29;20443;-72
2022/10/04 02:25:48;;;;;;;5.83;3.70;;;15.10;98.10;;;;;;4935553;29;20451;-72
2022/10/04 02:28:18;;;;;;;5.03;3.57;;;15.10;98.10;;;;;;4942757;29;20414;-72
2022/10/04 02:33:46;;;;;;;7.60;4.20;;;15.10;98.10;;;;;;4954323;29;20498;-72
2022/10/04 02:36:14;;;;;;;5.90;3.40;;;15.10;98.10;;;;;;4954739;29;20439;-72
2022/10/04 02:38:53;;;;;;;6.70;3.50;;;15.10;98.10;;;;;;4955255;28;20434;-73
2022/10/04 02:41:26;;;;;;;5.00;3.20;;;15.10;98.20;;;;;;4939058;29;20470;-74
2022/10/04 02:43:58;;;;;;;4.30;3.30;;;15.10;98.20;;;;;;4956196;28;20452;-73
2022/10/04 02:46:31;;;;;;;4.80;3.00;;;15.10;98.20;;;;;;4938942;29;20436;-74
2022/10/04 02:48:59;;;;;;;4.83;3.20;;;15.10;98.20;;;;;;4955821;28;20434;-74
2022/10/04 02:51:33;;;;;;;4.20;3.80;;;15.10;98.20;;;;;;4955904;28;20541;-74
2022/10/04 02:54:18;;;;;;;5.00;3.63;;;15.10;98.20;;;;;;4943355;29;20506;-74
2022/10/04 02:56:53;;;;;;;8.10;4.33;;;15.10;98.20;;;;;;4954063;29;21126;-74
2022/10/04 02:59:21;;;;;;;4.17;3.50;;;15.10;98.20;;;;;;4937902;29;20430;-74
2022/10/04 03:01:56;;;;;;;5.73;3.47;;;15.10;98.20;;;;;;4954498;28;20455;-73
2022/10/04 03:04:32;;;;;;;5.57;3.60;;;15.10;98.30;;;;;;4954538;28;20400;-72
2022/10/04 03:07:03;;;;;;;4.03;3.63;;;15.00;98.20;;;;;;4955067;29;20450;-74
2022/10/04 03:09:29;;;;;;;4.60;3.77;;;15.00;98.20;;;;;;4955480;28;20435;-73
2022/10/04 03:11:58;;;;;;;6.00;4.20;;;15.00;98.20;;;;;;4954224;29;20469;-73
2022/10/04 03:14:26;;;;;;;4.60;4.17;;;15.00;98.20;;;;;;4955424;28;20494;-74
2022/10/04 03:16:56;;;;;;;4.90;3.27;;;15.00;98.20;;;;;;4953970;29;20443;-73
2022/10/04 03:19:25;;;;;;;3.97;3.50;;;15.00;98.20;;;;;;4951797;28;20471;-74
2022/10/04 03:21:56;;;;;;;5.10;3.33;;;15.00;98.20;;;;;;4954543;28;20948;-74
2022/10/04 03:24:34;;;;;;;4.57;3.70;;;15.00;98.20;;;;;;4938373;29;20431;-73
2022/10/04 03:27:05;;;;;;;5.87;3.80;;;15.00;98.20;;;;;;4938282;29;20454;-73
2022/10/04 03:29:38;;;;;;;4.67;3.90;;;15.00;98.20;;;;;;4954092;28;20422;-73
2022/10/04 03:32:04;;;;;;;6.73;4.07;;;15.00;98.20;;;;;;4953315;29;20554;-73
2022/10/04 03:34:39;;;;;;;5.03;4.10;;;15.00;98.20;;;;;;4953894;29;20431;-73
2022/10/04 03:37:14;;;;;;;4.43;3.70;;;15.00;98.30;;;;;;4953270;29;20540;-73
2022/10/04 03:39:44;;;;;;;4.50;3.33;;;15.00;98.30;;;;;;4952050;28;20959;-74
2022/10/04 03:42:17;;;;;;;4.60;3.57;;;15.00;98.30;;;;;;4937429;29;20780;-74
2022/10/04 03:44:47;;;;;;;4.17;3.77;;;15.00;98.30;;;;;;4953323;29;20521;-74
2022/10/04 03:47:20;;;;;;;6.07;4.00;;;15.00;98.30;;;;;;4937897;29;20469;-73
2022/10/04 03:49:48;;;;;;;5.83;3.70;;;14.90;98.30;;;;;;4922124;29;20488;-73
2022/10/04 03:52:23;;;;;;;6.27;3.87;;;15.00;98.30;;;;;;4954180;28;20581;-73
2022/10/04 03:54:58;;;;;;;5.00;3.90;;;14.90;98.30;;;;;;4952186;29;20439;-74
2022/10/04 03:57:27;;;;;;;8.23;3.43;;;14.90;98.30;;;;;;4922556;29;20525;-73
2022/10/04 03:59:58;;;;;;;5.80;3.97;;;14.90;98.30;;;;;;4922036;29;20511;-73
2022/10/04 04:02:24;;;;;;;5.00;3.80;;;14.90;98.30;;;;;;4921901;29;20443;-74
2022/10/04 04:05:10;;;;;;;5.17;3.90;;;14.90;98.30;;;;;;4953377;29;20435;-74
2022/10/04 04:07:36;;;;;;;4.77;3.80;;;14.90;98.30;;;;;;4937652;29;20665;-73
2022/10/04 04:10:16;;;;;;;5.30;3.73;;;14.90;98.30;;;;;;4953354;29;20494;-73
2022/10/04 04:13:15;;;;;;;4.63;3.40;;;14.90;98.30;;;;;;4953890;28;20759;-73
2022/10/04 04:15:42;;;;;;;8.17;4.83;;;14.90;98.30;;;;;;4952920;29;20820;-73
2022/10/04 04:18:18;;;;;;;7.90;4.33;;;14.90;98.30;;;;;;4937786;29;20498;-73
2022/10/04 04:20:45;;;;;;;6.00;4.07;;;14.90;98.30;;;;;;4906158;29;20796;-73
2022/10/04 04:23:14;;;;;;;3.63;3.23;;;14.90;98.30;;;;;;4953199;28;20479;-73
2022/10/04 04:25:48;;;;;;;4.00;3.57;;;14.90;98.30;;;;;;4953036;28;22188;-74
2022/10/04 04:28:17;;;;;;;5.00;4.10;;;14.90;98.30;;;;;;4936906;29;20500;-73
2022/10/04 04:30:48;;;;;;;6.13;3.60;;;14.90;98.30;;;;;;4936269;28;20617;-73
2022/10/04 04:33:31;;;;;;;4.90;3.40;;;14.90;98.30;;;;;;4952471;29;20408;-73
2022/10/04 04:36:11;;;;;;;12.10;3.70;;;14.90;98.30;;;;;;4952656;29;20550;-73
2022/10/04 04:39:33;;;;;;;7.63;4.17;;;14.90;98.30;;;;;;4936761;29;20505;-73
2022/10/04 04:41:30;;;;;;;6.10;4.20;;;14.90;98.30;;;;;;4951688;29;20465;-74
2022/10/04 04:43:56;;;;;;;4.50;3.57;;;14.80;98.20;;;;;;4936159;29;20502;-74
2022/10/04 04:46:23;;;;;;;5.77;3.90;;;14.80;98.30;;;;;;4954415;28;20430;-73
2022/10/04 04:49:04;;;;;;;5.40;4.00;;;14.80;98.30;;;;;;4953243;29;20494;-75
2022/10/04 04:51:34;;;;;;;4.53;4.10;;;14.80;98.30;;;;;;4952597;28;20987;-73
2022/10/04 04:54:04;;;;;;;5.00;3.80;;;14.80;98.20;;;;;;4952298;29;20785;-74
2022/10/04 04:56:31;;;;;;;6.87;3.67;;;14.80;98.20;;;;;;4951752;29;20443;-74
2022/10/04 04:59:02;;;;;;;6.00;4.20;;;14.80;98.20;;;;;;4953219;28;20412;-74
2022/10/04 05:01:45;;;;;;;8.50;4.83;;;14.80;98.20;;;;;;4951743;29;20421;-74
2022/10/04 05:04:13;;;;;;;5.87;3.77;;;14.80;98.20;;;;;;4951020;28;20784;-74
2022/10/04 05:06:41;;;;;;;5.03;4.00;;;14.80;98.20;;;;;;4951945;28;20457;-73
2022/10/04 05:09:24;;;;;;;4.93;3.77;;;14.80;98.30;;;;;;4950984;29;20781;-74
2022/10/04 05:11:52;;;;;;;5.50;4.27;;;14.80;98.20;;;;;;4951834;29;20567;-74
2022/10/04 05:14:18;;;;;;;6.53;4.43;;;14.70;98.20;;;;;;4936141;29;20430;-74
2022/10/04 05:17:32;;;;;;;4.60;3.87;;;14.70;98.20;;;;;;4958294;28;20493;-74
2022/10/04 05:20:03;;;;;;;4.73;3.73;;;14.70;98.20;;;;;;4918155;29;20538;-74
2022/10/04 05:22:32;;;;;;;9.73;4.40;;;14.70;98.20;;;;;;4947941;28;20466;-74
2022/10/04 05:25:06;;;;;;;5.90;4.00;;;14.70;98.20;;;;;;4953927;28;20427;-74
2022/10/04 05:28:13;;;;;;;4.40;3.90;;;14.70;98.20;;;;;;4937182;28;20450;-74
2022/10/04 05:31:14;;;;;;;6.07;3.83;;;14.70;98.20;;;;;;4950912;28;20502;-74
2022/10/04 05:33:53;;;;;;;6.83;4.50;;;14.70;98.20;;;;;;4935591;28;20429;-74
2022/10/04 05:36:36;;;;;;;4.33;3.87;;;14.70;98.20;;;;;;4952451;28;20997;-74
2022/10/04 05:39:11;;;;;;;4.97;4.27;;;14.70;98.20;;;;;;4951582;28;20461;-74
2022/10/04 05:42:11;;;;;;;4.70;3.83;;;14.70;98.20;;;;;;4969873;28;20830;-74
2022/10/04 05:44:55;;;;;;;6.97;4.53;;;14.70;98.20;;;;;;4955079;28;20439;-72
2022/10/04 05:47:29;;;;;;;4.80;4.30;;;14.70;98.20;;;;;;4938017;29;20454;-74
2022/10/04 05:50:02;;;;;;;4.57;3.93;;;14.70;98.20;;;;;;4952433;29;20465;-75
2022/10/04 05:52:38;;;;;;;6.03;4.03;;;14.70;98.20;;;;;;4955874;28;21008;-75
2022/10/04 05:55:27;;;;;;;5.87;4.53;;;14.70;98.20;;;;;;4957256;28;20440;-75
2022/10/04 05:58:02;;;;;;;5.57;4.73;;;14.60;98.20;;;;;;4955714;29;20901;-75
2022/10/04 06:00:39;;;;;;;6.83;4.20;;;14.70;98.20;;;;;;4955573;29;20403;-75
2022/10/04 06:03:26;;;;;;;4.30;3.90;;;14.60;98.20;;;;;;4956669;28;20965;-75
2022/10/04 06:06:25;;;;;;;4.27;3.87;;;14.60;98.10;;;;;;4956707;28;20517;-75
2022/10/04 06:09:09;;;;;;;6.00;3.80;;;14.60;98.10;;;;;;4943067;29;20439;-75
2022/10/04 06:12:00;;;;;;;5.20;4.17;;;14.60;98.20;;;;;;4937619;29;20450;-75
2022/10/04 06:14:43;;;;;;;5.23;4.27;;;14.60;98.20;;;;;;4936226;29;20781;-75
2022/10/04 06:17:32;;;;;;;4.87;4.37;;;14.60;98.20;;;;;;4936122;29;20454;-75
2022/10/04 06:20:29;;;;;;;8.20;4.37;;;14.60;98.20;;;;;;4920276;29;20424;-74
2022/10/04 06:23:00;;;;;;;4.93;3.93;;;14.60;98.20;;;;;;4919909;29;20482;-75
2022/10/04 06:25:43;;;;;;;3.87;3.47;;;14.60;98.20;;;;;;4936053;29;20441;-75
2022/10/04 06:28:17;;;;;;;6.40;4.50;;;14.60;98.20;;;;;;4936125;29;20410;-75
2022/10/04 06:30:58;;;;;;;7.50;4.00;;;14.60;98.20;;;;;;4937330;29;20458;-75
2022/10/04 06:33:45;;;;;;;5.20;4.70;;;14.50;98.10;;;;;;4936002;29;20552;-75
2022/10/04 06:36:26;;;;;;;6.87;4.10;;;14.50;98.10;;;;;;4937108;29;20439;-75
2022/10/04 06:39:21;;;;;;;5.63;4.37;;;14.50;98.10;;;;;;4952345;29;20431;-75
2022/10/04 06:42:22;;;;;;;5.67;4.70;;;14.50;98.10;;;;;;4924263;29;20522;-75
2022/10/04 06:45:16;;;;;;;5.87;3.97;;;14.50;98.10;;;;;;4955480;29;20944;-75
2022/10/04 06:47:49;;;;;;;6.80;4.23;;;14.50;98.10;;;;;;4955160;29;20442;-75
2022/10/04 06:50:27;;;;;;;4.37;3.90;;;14.50;98.10;;;;;;4939638;29;20515;-75
2022/10/04 06:53:08;;;;;;;7.47;4.20;;;14.50;98.10;;;;;;4939200;29;20423;-75
2022/10/04 06:56:20;;;;;;;5.27;3.30;;;14.50;98.10;;;;;;4937837;29;21103;-75
2022/10/04 06:59:40;;;;;;;6.13;4.17;;;14.50;98.10;;;;;;4955354;28;20446;-75
2022/10/04 07:02:19;;;;;;;4.93;3.93;;;14.50;98.10;;;;;;4923397;29;20498;-75
2022/10/04 07:05:29;;;;;;;5.50;3.97;;;14.50;98.10;;;;;;4970124;28;20497;-75
2022/10/04 07:08:30;;;;;;;8.60;4.40;;;14.50;98.10;;;;;;4952728;28;20451;-75
2022/10/04 07:11:22;;;;;;;5.20;4.00;;;14.50;98.10;;;;;;4945049;29;20478;-75
2022/10/04 07:14:06;;;;;;;4.67;3.83;;;14.50;98.10;;;;;;4941131;29;20427;-75
2022/10/04 07:16:45;;;;;;;7.50;4.90;;;14.50;98.10;;;;;;4953830;29;20460;-75
2022/10/04 07:19:19;;;;;;;7.10;4.30;;;14.50;98.10;;;;;;4953711;29;20466;-75
2022/10/04 07:22:07;;;;;;;5.10;4.20;;;14.50;98.10;;;;;;4954562;28;20541;-75
2022/10/04 07:24:58;;;;;;;5.70;4.50;;;14.50;98.10;;;;;;4955009;28;20426;-75
2022/10/04 07:29:19;;;;;;;4.30;3.63;;;14.50;98.10;;;;;;4935063;29;20445;-75
2022/10/04 07:31:05;;;;;;;5.00;3.80;;;14.50;98.10;;;;;;4940320;29;20434;-75
2022/10/04 07:33:40;;;;;;;6.10;4.30;;;14.50;98.10;;;;;;4953601;28;20489;-75
2022/10/04 07:36:46;;;;;;;5.37;4.50;;;14.50;98.10;;;;;;4953538;28;20467;-75
2022/10/04 07:39:21;;;;;;;5.83;4.60;;;14.50;98.10;;;;;;4947308;29;20529;-75
2022/10/04 07:42:01;;;;;;;5.53;4.10;;;14.50;98.10;;;;;;4987344;23;20511;-70
2022/10/04 07:44:39;;;;;;;4.27;3.80;;;14.50;98.10;;;;;;4904890;29;20812;-71
2022/10/04 07:47:24;;;;;;;4.20;3.80;;;14.50;98.10;;;;;;4925127;29;20481;-73
2022/10/04 07:49:52;;;;;;;13.00;5.17;;;14.50;98.10;;;;;;4908093;29;20446;-73
2022/10/04 07:52:33;;;;;;;4.50;4.10;;;14.40;98.10;;;;;;4923087;29;20465;-73
2022/10/04 07:55:02;;;;;;;6.73;4.00;;;14.50;98.10;;;;;;4929687;29;20962;-72
2022/10/04 07:58:11;;;;;;;5.37;4.47;;;14.50;98.10;;;;;;4904489;29;20823;-73
2022/10/04 08:01:03;;;;;;;5.23;4.50;;;14.50;98.10;;;;;;4911392;29;20520;-73
2022/10/04 08:03:42;;;;;;;4.80;4.27;;;14.50;98.10;;;;;;4932324;29;20450;-73
2022/10/04 08:06:10;;;;;;;5.03;4.47;;;14.40;98.00;;;;;;4924260;29;20465;-73
2022/10/04 08:09:07;;;;;;;6.03;4.00;;;14.50;98.10;;;;;;4922281;29;20860;-73
2022/10/04 08:11:42;;;;;;;7.63;4.23;;;14.50;98.10;;;;;;4938247;29;20996;-73
2022/10/04 08:14:27;;;;;;;4.33;3.87;;;14.40;98.10;;;;;;4929147;29;20581;-73
2022/10/04 08:17:14;;;;;;;4.50;4.03;;;14.40;98.10;;;;;;4917560;29;21064;-73
2022/10/04 08:20:47;;;;;;;5.67;4.23;;;14.40;98.00;;;;;;4919015;29;20431;-72
2022/10/04 08:23:40;;;;;;;6.00;4.00;;;14.40;98.00;;;;;;4915029;29;20440;-73
2022/10/04 08:26:22;;;;;;;7.27;4.17;;;14.40;98.00;;;;;;4915481;29;20632;-73
2022/10/04 08:31:47;;;;;;;5.70;4.40;;;14.40;98.10;;;;;;4931729;29;20522;-73
2022/10/04 08:34:44;;;;;;;6.50;4.37;;;14.40;98.10;;;;;;4932020;29;20521;-73
2022/10/04 08:37:23;;;;;;;4.87;4.37;;;14.40;98.10;;;;;;4924347;29;20454;-73
2022/10/04 08:39:54;;;;;;;6.53;4.90;;;14.40;98.10;;;;;;4900761;29;20448;-73
2022/10/04 08:42:23;;;;;;;5.50;4.50;;;14.50;98.10;;;;;;4932055;29;20510;-73
2022/10/04 08:45:12;;;;;;;5.13;4.30;;;14.50;98.20;;;;;;4932350;29;20432;-73
2022/10/04 08:48:21;;;;;;;7.13;4.70;;;14.50;98.20;;;;;;4898697;29;20467;-73
2022/10/04 08:51:05;;;;;;;5.43;4.23;;;14.50;98.20;;;;;;4936297;29;20941;-73
2022/10/04 08:54:13;;;;;;;6.60;4.03;;;14.50;98.10;;;;;;4933033;29;20976;-72
2022/10/04 08:56:57;;;;;;;7.30;4.70;;;14.50;98.20;;;;;;4915045;29;20440;-73
2022/10/04 08:59:44;;;;;;;6.50;4.00;;;14.50;98.20;;;;;;4927473;29;20858;-73
2022/10/04 09:03:00;;;;;;;8.43;4.50;;;14.50;98.20;;;;;;4936260;29;20413;-73
2022/10/04 09:05:43;;;;;;;4.60;4.03;;;14.50;98.20;;;;;;4898726;29;20461;-71
2022/10/04 09:08:33;;;;;;;8.80;4.50;;;14.50;98.20;;;;;;4925873;29;20469;-71
2022/10/04 09:11:25;;;;;;;5.50;4.03;;;14.50;98.20;;;;;;4934944;29;20472;-71
2022/10/04 09:14:16;;;;;;;6.07;4.40;;;14.60;98.30;;;;;;4943681;29;20440;-71
2022/10/04 09:16:49;;;;;;;5.67;4.43;;;14.60;98.30;;;;;;4898545;29;20453;-72
2022/10/04 09:19:42;;;;;;;5.23;4.70;;;14.60;98.20;;;;;;4934261;29;20967;-71
2022/10/04 09:22:37;;;;;;;4.77;4.10;;;14.60;98.20;;;;;;4936341;29;20431;-71
2022/10/04 09:25:39;;;;;;;5.30;4.80;;;14.70;98.30;;;;;;4916473;29;20600;-71
2022/10/04 09:28:34;;;;;;;5.37;4.50;;;14.70;98.40;;;;;;4907263;29;20442;-71
2022/10/04 09:31:28;;;;;;;7.20;4.43;;;14.70;98.40;;;;;;4939334;29;20473;-71
2022/10/04 09:34:21;;;;;;;4.70;4.20;;;14.70;98.40;;;;;;4898853;29;21008;-71
2022/10/04 09:37:08;;;;;;;5.20;3.57;;;14.70;98.30;;;;;;4905631;29;20535;-70
2022/10/04 09:40:24;;;;;;;7.20;4.50;;;14.80;98.30;;;;;;4939096;28;20558;-72
2022/10/04 09:43:16;;;;;;;5.43;4.20;;;14.80;98.30;;;;;;4914312;29;20807;-71
2022/10/04 09:46:07;;;;;;;5.87;3.90;;;14.80;98.30;;;;;;4906842;29;20802;-72
2022/10/04 09:48:57;;;;;;;5.37;4.43;;;14.90;98.40;;;;;;4933345;29;20520;-72
2022/10/04 09:51:39;;;;;;;5.70;3.90;;;14.90;98.40;;;;;;4898613;29;20513;-72
2022/10/04 09:54:44;;;;;;;7.00;4.43;;;14.90;98.30;;;;;;4904839;29;20455;-72
2022/10/04 09:57:30;;;;;;;5.50;4.00;;;14.90;98.30;;;;;;4889161;29;20537;-71
2022/10/04 10:00:35;;;;;;;5.53;4.30;;;14.90;98.20;;;;;;4956406;28;20582;-70
2022/10/04 10:03:25;;;;;;;5.90;4.00;;;14.90;98.10;;;;;;4918061;29;20554;-70
2022/10/04 10:06:13;;;;;;;5.00;3.70;;;15.00;98.20;;;;;;4949317;29;20475;-70
2022/10/04 10:08:39;;;;;;;6.10;4.20;;;15.00;98.10;;;;;;4922574;29;20443;-71
2022/10/04 10:14:35;;;;;;;5.27;4.00;;;15.10;98.10;;;;;;4934718;29;20428;-70
2022/10/04 10:17:43;;;;;;;6.80;5.30;;;15.10;98.00;;;;;;4935895;29;20965;-70
2022/10/04 10:20:26;;;;;;;4.67;4.17;;;15.20;98.10;;;;;;4906906;29;20513;-70
2022/10/04 10:23:10;;;;;;;5.77;4.07;;;15.20;98.00;;;;;;4932983;29;20444;-70
2022/10/04 10:26:03;;;;;;;4.43;4.00;;;15.20;98.00;;;;;;4927534;29;20463;-70
2022/10/04 10:29:19;;;;;;;7.13;5.13;;;15.20;97.90;;;;;;4909176;29;20846;-70
2022/10/04 10:31:55;;;;;;;5.93;4.43;;;15.30;98.00;;;;;;4866791;29;20843;-71
2022/10/04 10:34:58;;;;;;;4.87;4.37;;;15.30;97.90;;;;;;4908163;29;20432;-70
2022/10/04 10:37:42;;;;;;;4.93;4.40;;;15.30;98.00;;;;;;4949113;28;20610;-71
2022/10/04 10:40:30;;;;;;;6.23;4.67;;;15.30;97.90;;;;;;4906829;29;20445;-71
2022/10/04 10:43:41;;;;;;;4.80;4.30;;;15.40;97.90;;;;;;4918771;29;20537;-70
2022/10/04 10:46:36;;;;;;;5.67;3.90;;;15.40;97.90;;;;;;4912730;29;21029;-70
2022/10/04 10:49:24;;;;;;;7.23;5.17;;;15.40;97.80;;;;;;4936286;29;20425;-70
2022/10/04 10:52:21;;;;;;;4.87;4.37;;;15.50;97.90;;;;;;4920381;29;20462;-70
2022/10/04 10:55:10;;;;;;;5.50;4.00;;;15.50;97.90;;;;;;4936395;29;20450;-70
2022/10/04 10:58:04;;;;;;;7.10;4.20;;;15.50;97.80;;;;;;4920331;29;20447;-70
2022/10/04 11:00:50;;;;;;;6.20;4.10;;;15.50;97.70;;;;;;4937089;29;20457;-70
2022/10/04 11:03:53;;;;;;;4.93;4.37;;;15.60;97.80;;;;;;4936918;29;20907;-70
2022/10/04 11:06:34;;;;;;;5.13;4.40;;;15.60;97.70;;;;;;4920131;29;20448;-70
2022/10/04 11:09:28;;;;;;;4.20;3.80;;;15.60;97.70;;;;;;4935237;29;20428;-70
2022/10/04 11:12:37;;;;;;;8.30;4.13;;;15.70;97.70;;;;;;4897842;29;20511;-70
2022/10/04 11:15:40;;;;;;;6.20;4.00;;;15.70;97.60;;;;;;4897766;29;20408;-70
2022/10/04 11:18:35;;;;;;;6.43;4.20;;;15.70;97.60;;;;;;4907051;29;20435;-71
2022/10/04 11:21:31;;;;;;;6.37;4.10;;;15.80;97.60;;;;;;4916887;29;20919;-71
2022/10/04 11:24:31;;;;;;;4.00;3.30;;;15.80;97.60;;;;;;4916978;29;20417;-71
2022/10/04 11:27:32;;;;;;;5.17;4.57;;;15.80;97.50;;;;;;4934528;29;20469;-71
2022/10/04 11:30:16;;;;;;;6.07;4.13;;;15.80;97.50;;;;;;4915145;29;20448;-71
2022/10/04 11:33:05;;;;;;;9.20;4.87;;;15.80;97.50;;;;;;4931871;29;20466;-71
2022/10/04 11:35:39;;;;;;;8.50;4.30;;;15.90;97.50;;;;;;4914780;29;20440;-71
2022/10/04 11:38:39;;;;;;;5.33;4.70;;;15.90;97.50;;;;;;4915819;29;20870;-71
2022/10/04 11:41:20;;;;;;;5.60;4.47;;;15.90;97.40;;;;;;4920894;29;20512;-71
2022/10/04 11:43:57;;;;;;;4.90;4.47;;;15.90;97.40;;;;;;4896771;29;20420;-71
2022/10/04 11:46:34;;;;;;;4.00;3.53;;;16.00;97.40;;;;;;4918736;29;20460;-72
2022/10/04 11:49:34;;;;;;;6.57;4.37;;;16.00;97.40;;;;;;4916390;29;20477;-71
2022/10/04 11:52:25;;;;;;;6.93;4.57;;;16.00;97.30;;;;;;4926054;29;20459;-71
2022/10/04 11:55:19;;;;;;;4.63;3.93;;;16.00;97.30;;;;;;4918287;29;20401;-71
2022/10/04 11:57:58;;;;;;;6.47;4.73;;;16.00;97.20;;;;;;4918137;29;20468;-71
2022/10/04 12:00:53;;;;;;;5.07;4.17;;;16.10;97.20;;;;;;4918427;29;20523;-71
2022/10/04 12:03:26;;;;;;;9.40;4.17;;;16.10;97.20;;;;;;4895969;29;20463;-71
2022/10/04 12:06:32;;;;;;;4.33;3.87;;;16.10;97.20;;;;;;4898544;29;20451;-71
2022/10/04 12:09:04;;;;;;;4.80;4.00;;;16.20;97.10;;;;;;4935266;28;20433;-72
2022/10/04 12:15:10;;;;;;;7.87;4.20;;;16.20;97.00;;;;;;4924391;29;20807;-71
2022/10/04 12:18:28;;;;;;;8.83;4.90;;;16.20;96.90;;;;;;4938126;28;20419;-71
2022/10/04 12:21:16;;;;;;;6.33;4.10;;;16.20;96.90;;;;;;4933254;29;20525;-73
2022/10/04 12:24:07;;;;;;;6.97;4.73;;;16.20;96.90;;;;;;4951001;29;20432;-73
2022/10/04 12:27:13;;;;;;;4.63;3.90;;;16.30;96.90;;;;;;4935059;29;21034;-73
2022/10/04 12:30:08;;;;;;;5.93;4.70;;;16.30;96.80;;;;;;4919444;29;20525;-73
2022/10/04 12:33:01;;;;;;;7.87;4.57;;;16.30;96.80;;;;;;4918845;29;20465;-73
2022/10/04 12:35:47;;;;;;;6.47;4.73;;;16.40;96.90;;;;;;4919176;29;20819;-73
2022/10/04 12:38:35;;;;;;;5.33;4.37;;;16.40;96.90;;;;;;4950949;29;20442;-73
2022/10/04 12:41:34;;;;;;;7.00;4.73;;;16.40;96.80;;;;;;4929652;29;20469;-73
2022/10/04 12:44:24;;;;;;;10.50;4.50;;;16.40;96.80;;;;;;4917273;29;20409;-73
2022/10/04 12:47:19;;;;;;;5.73;4.30;;;16.40;96.70;;;;;;4918503;29;20462;-72
2022/10/04 12:50:16;;;;;;;5.60;4.20;;;16.40;96.70;;;;;;4897297;29;20430;-73
2022/10/04 12:53:13;;;;;;;6.20;4.10;;;16.50;96.80;;;;;;4903042;29;21005;-73
2022/10/04 12:56:01;;;;;;;6.00;4.90;;;16.50;96.70;;;;;;4938007;29;20440;-73
2022/10/04 12:58:59;;;;;;;5.93;5.33;;;16.50;96.70;;;;;;4922384;29;20436;-73
2022/10/04 13:02:04;;;;;;;6.80;5.67;;;16.50;96.70;;;;;;4938109;29;20435;-73
2022/10/04 13:04:40;;;;;;;5.97;4.50;;;16.60;96.70;;;;;;4884767;29;20446;-73
2022/10/04 13:07:29;;;;;;;4.97;4.37;;;16.60;96.70;;;;;;4914542;29;20491;-73
2022/10/04 13:10:01;;;;;;;5.83;4.20;;;16.60;96.60;;;;;;4919295;29;20431;-73
2022/10/04 13:12:28;;;;;;;6.50;4.17;;;16.60;96.60;;;;;;4920062;29;20461;-73
2022/10/04 13:15:10;;;;;;;5.53;4.50;;;16.60;96.60;;;;;;4919530;29;20831;-73
2022/10/04 13:18:19;;;;;;;5.63;4.00;;;16.60;96.60;;;;;;4919932;29;20802;-73
2022/10/04 13:20:53;;;;;;;4.47;4.07;;;16.70;96.50;;;;;;4918727;29;20448;-73
2022/10/04 13:23:54;;;;;;;8.47;4.30;;;16.70;96.50;;;;;;4919779;29;20445;-73
2022/10/04 13:26:33;;;;;;;5.33;4.60;;;16.70;96.50;;;;;;4918672;29;20449;-72
2022/10/04 13:29:30;;;;;;;6.47;4.57;;;16.70;96.40;;;;;;4918551;29;20857;-73
2022/10/04 13:32:31;;;;;;;6.00;4.30;;;16.70;96.30;;;;;;4915545;29;20552;-72
2022/10/04 13:35:13;;;;;;;4.60;4.00;;;16.70;96.30;;;;;;4934282;29;20517;-73
2022/10/04 13:38:10;;;;;;;6.10;4.77;;;16.80;96.40;;;;;;4918530;29;20438;-73
2022/10/04 13:40:46;;;;;;;6.10;4.70;;;16.80;96.30;;;;;;4934165;29;20432;-73
2022/10/04 13:43:27;;;;;;;3.97;3.67;;;16.80;96.30;;;;;;4916751;29;20946;-73
2022/10/04 13:46:21;;;;;;;8.37;4.30;;;16.80;96.40;;;;;;4918166;29;20437;-73
2022/10/04 13:49:11;;;;;;;6.37;4.00;;;16.80;96.30;;;;;;4919698;29;20453;-73
2022/10/04 13:58:19;;;;;;;5.23;4.03;;;16.90;96.10;;;;;;4902420;29;20803;-73
2022/10/04 14:00:59;;;;;;;6.27;4.30;;;16.90;96.00;;;;;;4918210;29;20475;-73
2022/10/04 14:03:25;;;;;;;5.60;4.10;;;16.90;96.00;;;;;;4917575;29;20942;-73
2022/10/04 14:06:33;;;;;;;5.73;4.00;;;16.90;96.00;;;;;;4902558;29;20445;-73
2022/10/04 14:09:22;;;;;;;5.20;4.07;;;16.90;96.00;;;;;;4898453;29;20856;-73
2022/10/04 14:12:14;;;;;;;5.53;3.87;;;16.90;96.00;;;;;;4898554;29;20474;-72
2022/10/04 14:15:10;;;;;;;4.60;3.70;;;17.00;96.00;;;;;;4914581;29;20439;-73
2022/10/04 14:17:51;;;;;;;7.60;4.07;;;17.00;95.90;;;;;;4914526;29;20815;-72
2022/10/04 14:20:23;;;;;;;6.00;4.07;;;17.00;95.90;;;;;;4914410;29;20470;-73
2022/10/04 14:23:11;;;;;;;5.97;3.60;;;17.00;95.90;;;;;;4899810;29;20406;-73
2022/10/04 14:25:52;;;;;;;5.13;4.40;;;17.00;95.90;;;;;;4898651;29;20466;-73
2022/10/04 14:28:42;;;;;;;5.23;3.77;;;17.00;95.90;;;;;;4914545;29;20424;-73